Reform, Missouri
Current Conditions -  °F | °C
As of 5:53 AM on Monday 24 Nov 2014 (Local Time) from KJEF Reporting Station
Broken Clouds Broken Clouds  
Wind Chill: 26°   Ceiling: 3500
Heat Index: 36°   Visibility: 10mi
Dew Point: 26°   Wind: 18mph
Humidity: 67%   Direction: 280°W
Pressure: 29.56"   Gusts: 30mph
Location:  38.7569°N, 91.7845°W
Report Text: KJEF 241153Z AUTO 28016G26KT 10SM BKN035 02/M03 A2956 RMK AO2 PK WND 28031/1115 SLP000 60015 70084 T00221033 10067 20017 53026
Loading
Personal Weather Stations






























Interactive Weather Map New forecast layout! Learn more

10-Day Weather Forecast

Advertisements
Track Severe Weather on mobile